sensor_id;sensor_type;location;lat;lon;timestamp;temperature;humidity
19646;DHT22;9971;52.446;13.452;2023-02-13T00:00:17;14.90;99.90
19646;DHT22;9971;52.446;13.452;2023-02-13T00:05:19;14.90;99.90
19646;DHT22;9971;52.446;13.452;2023-02-13T00:10:21;15.00;99.90
19646;DHT22;9971;52.446;13.452;2023-02-13T00:15:23;15.00;99.90
19646;DHT22;9971;52.446;13.452;2023-02-13T00:20:26;15.10;99.90
19646;DHT22;9971;52.446;13.452;2023-02-13T00:25:29;15.10;99.90
19646;DHT22;9971;52.446;13.452;2023-02-13T00:30:31;15.10;99.90
19646;DHT22;9971;52.446;13.452;2023-02-13T00:35:34;15.10;99.90
19646;DHT22;9971;52.446;13.452;2023-02-13T00:40:36;15.10;99.90
19646;DHT22;9971;52.446;13.452;2023-02-13T00:45:38;15.20;99.90
19646;DHT22;9971;52.446;13.452;2023-02-13T00:50:41;15.20;99.90
19646;DHT22;9971;52.446;13.452;2023-02-13T00:55:43;15.30;99.90
19646;DHT22;9971;52.446;13.452;2023-02-13T01:00:45;15.30;99.90
19646;DHT22;9971;52.446;13.452;2023-02-13T01:05:47;15.30;99.90
19646;DHT22;9971;52.446;13.452;2023-02-13T01:10:50;15.30;99.90
19646;DHT22;9971;52.446;13.452;2023-02-13T01:15:52;15.30;99.90
19646;DHT22;9971;52.446;13.452;2023-02-13T01:20:56;15.40;99.90
19646;DHT22;9971;52.446;13.452;2023-02-13T01:25:57;15.40;99.90
19646;DHT22;9971;52.446;13.452;2023-02-13T01:30:59;15.40;99.90
19646;DHT22;9971;52.446;13.452;2023-02-13T01:36:06;15.40;99.90
19646;DHT22;9971;52.446;13.452;2023-02-13T01:41:08;15.40;99.90
19646;DHT22;9971;52.446;13.452;2023-02-13T01:46:10;15.50;99.90
19646;DHT22;9971;52.446;13.452;2023-02-13T01:51:14;15.50;99.90
19646;DHT22;9971;52.446;13.452;2023-02-13T01:56:17;15.50;99.90
19646;DHT22;9971;52.446;13.452;2023-02-13T02:01:18;15.50;99.90
19646;DHT22;9971;52.446;13.452;2023-02-13T02:16:59;15.70;99.90
19646;DHT22;9971;52.446;13.452;2023-02-13T02:22:28;15.70;99.90
19646;DHT22;9971;52.446;13.452;2023-02-13T02:27:36;15.70;99.90
19646;DHT22;9971;52.446;13.452;2023-02-13T02:32:39;15.80;99.90
19646;DHT22;9971;52.446;13.452;2023-02-13T02:37:44;15.80;99.90
19646;DHT22;9971;52.446;13.452;2023-02-13T02:43:22;15.80;99.90
19646;DHT22;9971;52.446;13.452;2023-02-13T02:53:45;15.80;99.90
19646;DHT22;9971;52.446;13.452;2023-02-13T02:58:54;15.90;99.90
19646;DHT22;9971;52.446;13.452;2023-02-13T03:04:03;15.90;99.90
19646;DHT22;9971;52.446;13.452;2023-02-13T03:09:11;15.90;99.90
19646;DHT22;9971;52.446;13.452;2023-02-13T03:14:19;15.90;99.90
19646;DHT22;9971;52.446;13.452;2023-02-13T03:20:09;15.90;99.90
19646;DHT22;9971;52.446;13.452;2023-02-13T03:25:10;15.90;99.90
19646;DHT22;9971;52.446;13.452;2023-02-13T03:35:43;16.00;99.90
19646;DHT22;9971;52.446;13.452;2023-02-13T03:40:49;16.00;99.90
19646;DHT22;9971;52.446;13.452;2023-02-13T03:45:56;16.00;99.90
19646;DHT22;9971;52.446;13.452;2023-02-13T03:50:59;16.00;99.90
19646;DHT22;9971;52.446;13.452;2023-02-13T03:56:01;16.00;99.90
19646;DHT22;9971;52.446;13.452;2023-02-13T04:01:08;16.00;99.90
19646;DHT22;9971;52.446;13.452;2023-02-13T04:06:13;16.00;99.90
19646;DHT22;9971;52.446;13.452;2023-02-13T04:11:17;16.00;99.90
19646;DHT22;9971;52.446;13.452;2023-02-13T04:16:20;16.00;99.90
19646;DHT22;9971;52.446;13.452;2023-02-13T04:21:19;16.00;99.90
19646;DHT22;9971;52.446;13.452;2023-02-13T04:26:22;16.00;99.90
19646;DHT22;9971;52.446;13.452;2023-02-13T04:31:24;16.00;99.90
19646;DHT22;9971;52.446;13.452;2023-02-13T04:36:26;16.00;99.90
19646;DHT22;9971;52.446;13.452;2023-02-13T04:41:29;16.00;99.90
19646;DHT22;9971;52.446;13.452;2023-02-13T04:46:31;16.10;99.90
19646;DHT22;9971;52.446;13.452;2023-02-13T04:51:33;16.10;99.90
19646;DHT22;9971;52.446;13.452;2023-02-13T04:56:36;16.10;99.90
19646;DHT22;9971;52.446;13.452;2023-02-13T05:01:38;16.10;99.90
19646;DHT22;9971;52.446;13.452;2023-02-13T05:06:41;16.10;99.90
19646;DHT22;9971;52.446;13.452;2023-02-13T05:11:43;16.10;99.90
19646;DHT22;9971;52.446;13.452;2023-02-13T05:16:45;16.10;99.90
19646;DHT22;9971;52.446;13.452;2023-02-13T05:21:47;16.10;99.90
19646;DHT22;9971;52.446;13.452;2023-02-13T05:26:56;16.10;99.90
19646;DHT22;9971;52.446;13.452;2023-02-13T05:31:58;16.10;99.90
19646;DHT22;9971;52.446;13.452;2023-02-13T05:37:00;16.10;99.90
19646;DHT22;9971;52.446;13.452;2023-02-13T05:42:03;16.10;99.90
19646;DHT22;9971;52.446;13.452;2023-02-13T05:47:05;16.10;99.90
19646;DHT22;9971;52.446;13.452;2023-02-13T05:52:07;16.10;99.90
19646;DHT22;9971;52.446;13.452;2023-02-13T05:57:10;16.10;99.90
19646;DHT22;9971;52.446;13.452;2023-02-13T06:02:12;16.10;99.90
19646;DHT22;9971;52.446;13.452;2023-02-13T06:07:15;16.10;99.90
19646;DHT22;9971;52.446;13.452;2023-02-13T06:12:17;16.10;99.90
19646;DHT22;9971;52.446;13.452;2023-02-13T06:17:20;16.20;99.90
19646;DHT22;9971;52.446;13.452;2023-02-13T06:22:22;16.20;99.90
19646;DHT22;9971;52.446;13.452;2023-02-13T06:27:25;16.20;99.90
19646;DHT22;9971;52.446;13.452;2023-02-13T06:32:27;16.20;99.90
19646;DHT22;9971;52.446;13.452;2023-02-13T06:37:30;16.20;99.90
19646;DHT22;9971;52.446;13.452;2023-02-13T06:42:32;16.20;99.90
19646;DHT22;9971;52.446;13.452;2023-02-13T06:47:35;16.20;99.90
19646;DHT22;9971;52.446;13.452;2023-02-13T06:52:37;16.20;99.90
19646;DHT22;9971;52.446;13.452;2023-02-13T06:57:40;16.20;99.90
19646;DHT22;9971;52.446;13.452;2023-02-13T07:02:42;16.20;99.90
19646;DHT22;9971;52.446;13.452;2023-02-13T07:07:44;16.20;99.90
19646;DHT22;9971;52.446;13.452;2023-02-13T07:12:46;16.20;99.90
19646;DHT22;9971;52.446;13.452;2023-02-13T07:17:54;16.20;99.90
19646;DHT22;9971;52.446;13.452;2023-02-13T07:22:51;16.20;99.90
19646;DHT22;9971;52.446;13.452;2023-02-13T07:27:53;16.30;99.90
19646;DHT22;9971;52.446;13.452;2023-02-13T07:33:01;16.30;99.90
19646;DHT22;9971;52.446;13.452;2023-02-13T07:38:03;16.30;99.90
19646;DHT22;9971;52.446;13.452;2023-02-13T07:43:05;16.30;99.90
19646;DHT22;9971;52.446;13.452;2023-02-13T07:48:07;16.30;99.90
19646;DHT22;9971;52.446;13.452;2023-02-13T07:53:10;16.30;99.90
19646;DHT22;9971;52.446;13.452;2023-02-13T07:58:12;16.30;99.90
19646;DHT22;9971;52.446;13.452;2023-02-13T08:03:14;16.30;99.90
19646;DHT22;9971;52.446;13.452;2023-02-13T08:08:16;16.30;99.90
19646;DHT22;9971;52.446;13.452;2023-02-13T08:13:19;16.30;99.90
19646;DHT22;9971;52.446;13.452;2023-02-13T08:18:21;16.30;99.90
19646;DHT22;9971;52.446;13.452;2023-02-13T08:23:24;16.40;99.90
19646;DHT22;9971;52.446;13.452;2023-02-13T08:28:26;16.40;99.90
19646;DHT22;9971;52.446;13.452;2023-02-13T08:33:28;16.40;99.90
19646;DHT22;9971;52.446;13.452;2023-02-13T08:38:30;16.40;99.90
19646;DHT22;9971;52.446;13.452;2023-02-13T08:43:32;16.40;99.90
19646;DHT22;9971;52.446;13.452;2023-02-13T08:48:34;16.40;99.90
19646;DHT22;9971;52.446;13.452;2023-02-13T08:53:37;16.40;99.90
19646;DHT22;9971;52.446;13.452;2023-02-13T08:58:39;16.40;99.90
19646;DHT22;9971;52.446;13.452;2023-02-13T09:03:41;16.40;99.90
19646;DHT22;9971;52.446;13.452;2023-02-13T09:08:44;16.40;99.90
19646;DHT22;9971;52.446;13.452;2023-02-13T09:13:47;16.40;99.90
19646;DHT22;9971;52.446;13.452;2023-02-13T09:18:49;16.40;99.90
19646;DHT22;9971;52.446;13.452;2023-02-13T09:23:51;16.40;99.90
19646;DHT22;9971;52.446;13.452;2023-02-13T09:28:53;16.50;99.90
19646;DHT22;9971;52.446;13.452;2023-02-13T09:33:56;16.50;99.90
19646;DHT22;9971;52.446;13.452;2023-02-13T09:38:58;16.50;99.90
19646;DHT22;9971;52.446;13.452;2023-02-13T09:44:01;16.50;99.90
19646;DHT22;9971;52.446;13.452;2023-02-13T09:49:05;16.50;99.90
19646;DHT22;9971;52.446;13.452;2023-02-13T09:54:06;16.40;99.90
19646;DHT22;9971;52.446;13.452;2023-02-13T09:59:15;16.40;99.90
19646;DHT22;9971;52.446;13.452;2023-02-13T10:04:37;16.40;99.90
19646;DHT22;9971;52.446;13.452;2023-02-13T10:09:39;16.30;99.90
19646;DHT22;9971;52.446;13.452;2023-02-13T10:15:55;16.30;99.90
19646;DHT22;9971;52.446;13.452;2023-02-13T10:20:06;16.30;99.90
19646;DHT22;9971;52.446;13.452;2023-02-13T10:25:13;16.30;99.90
19646;DHT22;9971;52.446;13.452;2023-02-13T10:30:17;16.30;99.90
19646;DHT22;9971;52.446;13.452;2023-02-13T10:35:26;16.30;99.90
19646;DHT22;9971;52.446;13.452;2023-02-13T10:40:30;16.20;99.90
19646;DHT22;9971;52.446;13.452;2023-02-13T10:45:42;16.20;99.90
19646;DHT22;9971;52.446;13.452;2023-02-13T10:56:05;16.10;99.90
19646;DHT22;9971;52.446;13.452;2023-02-13T11:01:17;16.20;99.90
19646;DHT22;9971;52.446;13.452;2023-02-13T11:06:19;16.20;99.90
19646;DHT22;9971;52.446;13.452;2023-02-13T11:11:32;16.30;99.90
19646;DHT22;9971;52.446;13.452;2023-02-13T11:16:52;16.20;99.90
19646;DHT22;9971;52.446;13.452;2023-02-13T11:21:54;16.20;99.90
19646;DHT22;9971;52.446;13.452;2023-02-13T11:27:00;16.20;99.90
19646;DHT22;9971;52.446;13.452;2023-02-13T11:32:03;16.20;99.90
19646;DHT22;9971;52.446;13.452;2023-02-13T11:37:13;16.20;99.90
19646;DHT22;9971;52.446;13.452;2023-02-13T11:42:19;16.20;99.90
19646;DHT22;9971;52.446;13.452;2023-02-13T11:47:31;16.20;99.90
19646;DHT22;9971;52.446;13.452;2023-02-13T11:52:31;16.20;99.90
19646;DHT22;9971;52.446;13.452;2023-02-13T11:57:34;16.20;99.90
19646;DHT22;9971;52.446;13.452;2023-02-13T12:02:43;16.20;99.90
19646;DHT22;9971;52.446;13.452;2023-02-13T12:07:44;16.20;99.90
19646;DHT22;9971;52.446;13.452;2023-02-13T12:12:52;16.20;99.90
19646;DHT22;9971;52.446;13.452;2023-02-13T12:18:03;16.10;99.90
19646;DHT22;9971;52.446;13.452;2023-02-13T12:28:53;16.10;99.90
19646;DHT22;9971;52.446;13.452;2023-02-13T12:34:14;16.20;99.90
19646;DHT22;9971;52.446;13.452;2023-02-13T12:39:32;16.10;99.90
19646;DHT22;9971;52.446;13.452;2023-02-13T12:44:37;16.20;99.90
19646;DHT22;9971;52.446;13.452;2023-02-13T12:50:03;16.20;99.90
19646;DHT22;9971;52.446;13.452;2023-02-13T12:55:42;16.20;99.90
19646;DHT22;9971;52.446;13.452;2023-02-13T13:00:44;16.20;99.90
19646;DHT22;9971;52.446;13.452;2023-02-13T13:05:56;16.30;99.90
19646;DHT22;9971;52.446;13.452;2023-02-13T13:16:25;16.30;99.90
19646;DHT22;9971;52.446;13.452;2023-02-13T13:21:38;16.30;99.90
19646;DHT22;9971;52.446;13.452;2023-02-13T13:26:40;16.30;99.90
19646;DHT22;9971;52.446;13.452;2023-02-13T13:31:41;16.30;99.90
19646;DHT22;9971;52.446;13.452;2023-02-13T13:36:47;16.30;99.90
19646;DHT22;9971;52.446;13.452;2023-02-13T13:41:54;16.30;99.90
19646;DHT22;9971;52.446;13.452;2023-02-13T13:47:01;16.30;99.90
19646;DHT22;9971;52.446;13.452;2023-02-13T13:52:40;16.30;99.90
19646;DHT22;9971;52.446;13.452;2023-02-13T13:57:25;16.30;99.90
19646;DHT22;9971;52.446;13.452;2023-02-13T14:02:38;16.30;99.90
19646;DHT22;9971;52.446;13.452;2023-02-13T14:07:39;16.20;99.90
19646;DHT22;9971;52.446;13.452;2023-02-13T14:12:47;16.20;99.90
19646;DHT22;9971;52.446;13.452;2023-02-13T14:17:48;16.20;99.90
19646;DHT22;9971;52.446;13.452;2023-02-13T14:22:49;16.20;99.90
19646;DHT22;9971;52.446;13.452;2023-02-13T14:28:00;16.10;99.90
19646;DHT22;9971;52.446;13.452;2023-02-13T14:33:04;16.10;99.90
19646;DHT22;9971;52.446;13.452;2023-02-13T14:38:05;16.10;99.90
19646;DHT22;9971;52.446;13.452;2023-02-13T14:43:16;16.00;99.90
19646;DHT22;9971;52.446;13.452;2023-02-13T14:48:10;16.00;99.90
19646;DHT22;9971;52.446;13.452;2023-02-13T14:53:31;15.90;99.90
19646;DHT22;9971;52.446;13.452;2023-02-13T14:58:32;15.90;99.90
19646;DHT22;9971;52.446;13.452;2023-02-13T15:03:40;16.00;99.90
19646;DHT22;9971;52.446;13.452;2023-02-13T15:08:41;16.00;99.90
19646;DHT22;9971;52.446;13.452;2023-02-13T15:13:41;16.00;99.90
19646;DHT22;9971;52.446;13.452;2023-02-13T15:18:46;15.90;99.90
19646;DHT22;9971;52.446;13.452;2023-02-13T15:23:54;16.00;99.90
19646;DHT22;9971;52.446;13.452;2023-02-13T15:28:59;16.00;99.90
19646;DHT22;9971;52.446;13.452;2023-02-13T15:34:01;16.00;99.90
19646;DHT22;9971;52.446;13.452;2023-02-13T15:39:03;16.00;99.90
19646;DHT22;9971;52.446;13.452;2023-02-13T15:44:05;16.00;99.90
19646;DHT22;9971;52.446;13.452;2023-02-13T15:49:12;16.00;99.90
19646;DHT22;9971;52.446;13.452;2023-02-13T15:54:23;16.00;99.90
19646;DHT22;9971;52.446;13.452;2023-02-13T15:59:25;16.10;99.90
19646;DHT22;9971;52.446;13.452;2023-02-13T16:04:26;16.10;99.90
19646;DHT22;9971;52.446;13.452;2023-02-13T16:09:30;16.10;99.90
19646;DHT22;9971;52.446;13.452;2023-02-13T16:14:32;16.10;99.90
19646;DHT22;9971;52.446;13.452;2023-02-13T16:19:35;16.10;99.90
19646;DHT22;9971;52.446;13.452;2023-02-13T16:24:35;16.10;99.90
19646;DHT22;9971;52.446;13.452;2023-02-13T16:29:38;16.10;99.90
19646;DHT22;9971;52.446;13.452;2023-02-13T16:34:39;16.20;99.90
19646;DHT22;9971;52.446;13.452;2023-02-13T16:39:42;16.20;99.90
19646;DHT22;9971;52.446;13.452;2023-02-13T16:44:44;16.20;99.90
19646;DHT22;9971;52.446;13.452;2023-02-13T16:49:50;16.20;99.90
19646;DHT22;9971;52.446;13.452;2023-02-13T16:54:55;16.20;99.90
19646;DHT22;9971;52.446;13.452;2023-02-13T17:00:02;16.20;99.90
19646;DHT22;9971;52.446;13.452;2023-02-13T17:05:19;16.20;99.90
19646;DHT22;9971;52.446;13.452;2023-02-13T17:10:24;16.20;99.90
19646;DHT22;9971;52.446;13.452;2023-02-13T17:15:25;16.30;99.90
19646;DHT22;9971;52.446;13.452;2023-02-13T17:20:29;16.30;99.90
19646;DHT22;9971;52.446;13.452;2023-02-13T17:25:34;16.30;99.90
19646;DHT22;9971;52.446;13.452;2023-02-13T17:30:35;16.30;99.90
19646;DHT22;9971;52.446;13.452;2023-02-13T17:35:37;16.30;99.90
19646;DHT22;9971;52.446;13.452;2023-02-13T17:40:40;16.30;99.90
19646;DHT22;9971;52.446;13.452;2023-02-13T17:45:42;16.30;99.90
19646;DHT22;9971;52.446;13.452;2023-02-13T17:50:44;16.30;99.90
19646;DHT22;9971;52.446;13.452;2023-02-13T17:55:46;16.30;99.90
19646;DHT22;9971;52.446;13.452;2023-02-13T18:00:48;16.30;99.90
19646;DHT22;9971;52.446;13.452;2023-02-13T18:05:51;16.30;99.90
19646;DHT22;9971;52.446;13.452;2023-02-13T18:10:53;16.30;99.90
19646;DHT22;9971;52.446;13.452;2023-02-13T18:15:56;16.30;99.90
19646;DHT22;9971;52.446;13.452;2023-02-13T18:20:58;16.30;99.90
19646;DHT22;9971;52.446;13.452;2023-02-13T18:26:04;16.30;99.90
19646;DHT22;9971;52.446;13.452;2023-02-13T18:31:07;16.30;99.90
19646;DHT22;9971;52.446;13.452;2023-02-13T18:36:07;16.40;99.90
19646;DHT22;9971;52.446;13.452;2023-02-13T18:41:10;16.40;99.90
19646;DHT22;9971;52.446;13.452;2023-02-13T18:46:12;16.40;99.90
19646;DHT22;9971;52.446;13.452;2023-02-13T18:51:14;16.40;99.90
19646;DHT22;9971;52.446;13.452;2023-02-13T18:56:17;16.40;99.90
19646;DHT22;9971;52.446;13.452;2023-02-13T19:01:19;16.40;99.90
19646;DHT22;9971;52.446;13.452;2023-02-13T19:06:21;16.40;99.90
19646;DHT22;9971;52.446;13.452;2023-02-13T19:11:23;16.40;99.90
19646;DHT22;9971;52.446;13.452;2023-02-13T19:16:25;16.40;99.90
19646;DHT22;9971;52.446;13.452;2023-02-13T19:21:27;16.40;99.90
19646;DHT22;9971;52.446;13.452;2023-02-13T19:26:29;16.40;99.90
19646;DHT22;9971;52.446;13.452;2023-02-13T19:31:31;16.30;99.90
19646;DHT22;9971;52.446;13.452;2023-02-13T19:36:34;16.30;99.90
19646;DHT22;9971;52.446;13.452;2023-02-13T19:41:36;16.30;99.90
19646;DHT22;9971;52.446;13.452;2023-02-13T19:46:39;16.30;99.90
19646;DHT22;9971;52.446;13.452;2023-02-13T19:51:41;16.30;99.90
19646;DHT22;9971;52.446;13.452;2023-02-13T19:56:43;16.20;99.90
19646;DHT22;9971;52.446;13.452;2023-02-13T20:01:46;16.10;99.90
19646;DHT22;9971;52.446;13.452;2023-02-13T20:06:48;16.10;99.90
19646;DHT22;9971;52.446;13.452;2023-02-13T20:11:51;16.00;99.90
19646;DHT22;9971;52.446;13.452;2023-02-13T20:16:53;16.00;99.90
19646;DHT22;9971;52.446;13.452;2023-02-13T20:21:56;16.00;99.90
19646;DHT22;9971;52.446;13.452;2023-02-13T20:26:59;16.00;99.90
19646;DHT22;9971;52.446;13.452;2023-02-13T20:32:02;16.00;99.90
19646;DHT22;9971;52.446;13.452;2023-02-13T20:37:04;16.00;99.90
19646;DHT22;9971;52.446;13.452;2023-02-13T20:42:07;16.00;99.90
19646;DHT22;9971;52.446;13.452;2023-02-13T20:47:09;16.00;99.90
19646;DHT22;9971;52.446;13.452;2023-02-13T20:52:11;16.00;99.90
19646;DHT22;9971;52.446;13.452;2023-02-13T20:57:14;15.90;99.90
19646;DHT22;9971;52.446;13.452;2023-02-13T21:02:16;15.90;99.80
19646;DHT22;9971;52.446;13.452;2023-02-13T21:07:19;15.90;99.50
19646;DHT22;9971;52.446;13.452;2023-02-13T21:12:21;15.80;99.30
19646;DHT22;9971;52.446;13.452;2023-02-13T21:17:23;15.80;99.80
19646;DHT22;9971;52.446;13.452;2023-02-13T21:22:26;13.60;99.90
19646;DHT22;9971;52.446;13.452;2023-02-13T21:27:28;11.40;99.90
19646;DHT22;9971;52.446;13.452;2023-02-13T21:32:31;10.30;99.90
19646;DHT22;9971;52.446;13.452;2023-02-13T21:37:33;9.70;99.90
19646;DHT22;9971;52.446;13.452;2023-02-13T21:42:36;9.40;99.90
19646;DHT22;9971;52.446;13.452;2023-02-13T21:47:38;9.20;99.90
19646;DHT22;9971;52.446;13.452;2023-02-13T22:17:41;9.10;99.90
19646;DHT22;9971;52.446;13.452;2023-02-13T22:47:44;11.70;99.90
19646;DHT22;9971;52.446;13.452;2023-02-13T22:52:46;13.10;99.90
19646;DHT22;9971;52.446;13.452;2023-02-13T22:57:49;11.30;99.90
19646;DHT22;9971;52.446;13.452;2023-02-13T23:02:51;10.20;99.90
19646;DHT22;9971;52.446;13.452;2023-02-13T23:07:53;9.60;99.90
19646;DHT22;9971;52.446;13.452;2023-02-13T23:12:56;9.10;99.90
19646;DHT22;9971;52.446;13.452;2023-02-13T23:17:58;8.90;99.90
19646;DHT22;9971;52.446;13.452;2023-02-13T23:23:05;8.70;99.90
19646;DHT22;9971;52.446;13.452;2023-02-13T23:28:08;8.70;99.90
19646;DHT22;9971;52.446;13.452;2023-02-13T23:33:10;8.60;99.90
19646;DHT22;9971;52.446;13.452;2023-02-13T23:38:13;8.60;99.90
19646;DHT22;9971;52.446;13.452;2023-02-13T23:43:15;8.60;99.90
19646;DHT22;9971;52.446;13.452;2023-02-13T23:48:18;8.50;99.90
19646;DHT22;9971;52.446;13.452;2023-02-13T23:53:20;8.50;99.90
19646;DHT22;9971;52.446;13.452;2023-02-13T23:58:23;8.50;99.90
